Time;durP1;ratioP1;P1;durP2;ratioP2;P2;SDS_P1;SDS_P2;PMS_P1;PMS_P2;Temp;Humidity;BMP_temperature;BMP_pressure;BME280_temperature;BME280_humidity;BME280_pressure;Samples;Min_cycle;Max_cycle;Signal;HPM_P1;HPM_P2
2023/02/20 00:03:01;;;;;;;14.40;8.65;;;;;;;;;;10279424;28;20062;-80
2023/02/20 00:08:01;;;;;;;19.98;10.18;;;;;;;;;;10282026;28;20023;-75
2023/02/20 00:13:02;;;;;;;17.83;9.98;;;;;;;;;;10279230;28;20029;-73
2023/02/20 00:18:02;;;;;;;17.95;9.25;;;;;;;;;;10278267;28;20026;-75
2023/02/20 00:23:02;;;;;;;23.13;10.43;;;;;;;;;;10277675;28;20023;-75
2023/02/20 00:28:03;;;;;;;19.60;11.00;;;;;;;;;;10280492;28;20103;-80
2023/02/20 00:33:03;;;;;;;19.90;10.27;;;;;;;;;;10278747;28;20485;-74
2023/02/20 00:38:04;;;;;;;19.20;9.90;;;;;;;;;;10270485;28;20023;-78
2023/02/20 00:43:04;;;;;;;18.17;9.90;;;;;;;;;;10263694;28;20118;-78
2023/02/20 00:48:04;;;;;;;19.33;11.70;;;;;;;;;;10262995;28;20023;-76
2023/02/20 00:53:04;;;;;;;23.80;10.27;;;;;;;;;;10280948;28;20121;-74
2023/02/20 00:58:05;;;;;;;18.92;9.75;;;;;;;;;;10277722;28;20270;-81
2023/02/20 01:03:05;;;;;;;21.90;10.25;;;;;;;;;;10277383;28;20055;-79
2023/02/20 01:08:05;;;;;;;17.03;9.43;;;;;;;;;;10278761;28;20042;-80
2023/02/20 01:13:06;;;;;;;23.40;10.45;;;;;;;;;;10277927;28;20058;-78
2023/02/20 01:18:06;;;;;;;16.45;9.40;;;;;;;;;;10280123;28;20081;-80
2023/02/20 01:23:06;;;;;;;20.00;10.35;;;;;;;;;;10282006;28;20354;-75
2023/02/20 01:28:06;;;;;;;19.57;11.03;;;;;;;;;;10282271;28;20031;-78
2023/02/20 01:33:07;;;;;;;19.80;10.70;;;;;;;;;;10277669;28;20019;-78
2023/02/20 01:38:07;;;;;;;21.70;10.95;;;;;;;;;;10283794;28;20074;-75
2023/02/20 01:43:09;;;;;;;18.55;11.65;;;;;;;;;;10301777;28;20565;-74
2023/02/20 01:48:20;;;;;;;18.23;10.70;;;;;;;;;;10286513;28;20093;-78
2023/02/20 01:53:22;;;;;;;18.00;11.05;;;;;;;;;;10248591;28;20026;-75
2023/02/20 01:58:25;;;;;;;20.75;11.40;;;;;;;;;;10283939;28;20049;-73
2023/02/20 02:03:26;;;;;;;18.88;10.55;;;;;;;;;;10256746;28;20051;-76
2023/02/20 02:08:27;;;;;;;21.13;12.20;;;;;;;;;;10273268;28;20126;-75
2023/02/20 02:13:32;;;;;;;16.40;9.63;;;;;;;;;;10271655;28;20377;-82
2023/02/20 02:18:58;;;;;;;21.80;11.32;;;;;;;;;;10285622;28;20023;-73
2023/02/20 02:24:11;;;;;;;14.70;7.45;;;;;;;;;;10285921;28;20035;-77
2023/02/20 02:29:26;;;;;;;9.52;5.75;;;;;;;;;;10288169;28;20027;-73
2023/02/20 02:34:39;;;;;;;9.77;5.97;;;;;;;;;;10286554;28;20028;-84
2023/02/20 02:39:49;;;;;;;9.13;4.85;;;;;;;;;;10285098;28;20019;-76
2023/02/20 02:44:49;;;;;;;7.93;4.57;;;;;;;;;;10281238;28;20054;-75
2023/02/20 02:50:01;;;;;;;10.75;4.22;;;;;;;;;;10284416;28;20121;-78
2023/02/20 02:55:02;;;;;;;9.88;3.42;;;;;;;;;;10282289;28;20111;-78
2023/02/20 03:00:09;;;;;;;5.07;3.45;;;;;;;;;;10289483;28;20058;-77
2023/02/20 03:05:12;;;;;;;5.05;3.08;;;;;;;;;;10267347;28;20027;-79
2023/02/20 03:10:19;;;;;;;7.30;3.20;;;;;;;;;;10265283;28;20105;-74
2023/02/20 03:15:36;;;;;;;7.15;3.67;;;;;;;;;;10280408;28;20038;-79
2023/02/20 03:20:41;;;;;;;4.97;2.83;;;;;;;;;;10280155;28;20014;-78
2023/02/20 03:25:47;;;;;;;5.15;3.80;;;;;;;;;;10278047;28;20019;-77
2023/02/20 03:31:03;;;;;;;3.38;2.72;;;;;;;;;;10280362;28;20468;-80
2023/02/20 03:46:46;;;;;;;4.85;2.75;;;;;;;;;;10281550;28;20023;-77
2023/02/20 03:51:58;;;;;;;2.90;2.50;;;;;;;;;;10282023;28;20058;-76
2023/02/20 03:57:01;;;;;;;5.75;3.00;;;;;;;;;;10284863;28;20030;-72
2023/02/20 04:02:07;;;;;;;4.18;2.85;;;;;;;;;;10310485;28;20429;-71
2023/02/20 04:07:14;;;;;;;4.63;2.90;;;;;;;;;;10321291;28;20041;-82
2023/02/20 04:12:26;;;;;;;3.78;2.40;;;;;;;;;;10319396;28;20026;-74
2023/02/20 04:17:29;;;;;;;2.55;2.30;;;;;;;;;;10321992;28;20042;-77
2023/02/20 04:22:31;;;;;;;3.17;2.20;;;;;;;;;;10322010;28;20085;-75
2023/02/20 04:27:31;;;;;;;2.75;2.25;;;;;;;;;;10311819;28;20559;-77
2023/02/20 04:32:32;;;;;;;4.50;2.90;;;;;;;;;;10297266;28;20035;-71
2023/02/20 04:37:32;;;;;;;7.82;3.33;;;;;;;;;;10319717;28;20117;-73
2023/02/20 04:42:32;;;;;;;3.77;2.93;;;;;;;;;;10302249;28;20018;-79
2023/02/20 04:47:33;;;;;;;4.57;2.92;;;;;;;;;;10321089;28;20053;-77
2023/02/20 04:52:33;;;;;;;4.65;2.60;;;;;;;;;;10280672;28;20077;-79
2023/02/20 04:57:33;;;;;;;3.20;2.08;;;;;;;;;;10283537;28;20031;-79
2023/02/20 05:02:33;;;;;;;5.40;2.63;;;;;;;;;;10266179;28;20055;-75
2023/02/20 05:07:34;;;;;;;2.92;2.17;;;;;;;;;;10256387;28;20031;-80
2023/02/20 05:12:34;;;;;;;3.93;2.70;;;;;;;;;;10244432;28;20027;-80
2023/02/20 05:17:35;;;;;;;9.23;2.00;;;;;;;;;;10244940;28;20023;-80
2023/02/20 05:22:35;;;;;;;3.50;2.17;;;;;;;;;;10247897;28;20058;-76
2023/02/20 05:27:36;;;;;;;3.25;1.65;;;;;;;;;;10263685;28;20487;-79
2023/02/20 05:32:36;;;;;;;4.15;3.38;;;;;;;;;;10255848;28;20034;-75
2023/02/20 05:37:36;;;;;;;5.37;2.67;;;;;;;;;;10259307;28;20418;-83
2023/02/20 05:42:37;;;;;;;5.90;3.80;;;;;;;;;;10262247;28;20296;-79
2023/02/20 05:47:37;;;;;;;9.02;6.20;;;;;;;;;;10285253;28;20029;-78
2023/02/20 05:52:37;;;;;;;5.07;3.72;;;;;;;;;;10247945;28;20028;-75
2023/02/20 05:57:38;;;;;;;12.07;5.23;;;;;;;;;;10260032;28;20035;-80
2023/02/20 06:02:38;;;;;;;6.53;4.53;;;;;;;;;;10249445;28;20062;-79
2023/02/20 06:07:38;;;;;;;9.95;5.25;;;;;;;;;;10267425;28;20031;-76
2023/02/20 06:12:38;;;;;;;5.00;3.55;;;;;;;;;;10283348;28;20063;-78
2023/02/20 06:17:39;;;;;;;7.03;3.30;;;;;;;;;;10240268;28;20516;-78
2023/02/20 06:22:39;;;;;;;5.65;3.08;;;;;;;;;;10267761;28;20386;-72
2023/02/20 06:27:41;;;;;;;6.53;3.10;;;;;;;;;;10286847;28;20027;-79
2023/02/20 06:32:42;;;;;;;5.78;3.38;;;;;;;;;;10276443;28;20282;-80
2023/02/20 06:37:43;;;;;;;9.65;3.67;;;;;;;;;;10288908;28;20030;-80
2023/02/20 06:42:46;;;;;;;6.10;3.42;;;;;;;;;;10280722;28;20056;-77
2023/02/20 06:47:46;;;;;;;7.15;3.22;;;;;;;;;;10305612;28;20077;-78
2023/02/20 06:52:48;;;;;;;8.55;3.30;;;;;;;;;;10296245;28;20085;-78
2023/02/20 06:57:56;;;;;;;13.30;2.95;;;;;;;;;;10298063;28;20428;-74
2023/02/20 07:03:17;;;;;;;7.15;3.95;;;;;;;;;;10317277;28;20051;-80
2023/02/20 07:08:17;;;;;;;6.43;3.40;;;;;;;;;;10299824;28;20030;-76
2023/02/20 07:13:17;;;;;;;7.25;3.13;;;;;;;;;;10277603;28;20049;-79
2023/02/20 07:18:17;;;;;;;4.18;3.10;;;;;;;;;;10275902;28;20030;-77
2023/02/20 07:23:18;;;;;;;3.10;2.03;;;;;;;;;;10249766;28;20043;-75
2023/02/20 07:28:18;;;;;;;7.90;2.43;;;;;;;;;;10267578;28;20096;-73
2023/02/20 07:33:19;;;;;;;17.23;2.80;;;;;;;;;;10278551;28;20039;-77
2023/02/20 07:38:19;;;;;;;4.47;1.30;;;;;;;;;;10236860;28;20579;-72
2023/02/20 07:43:19;;;;;;;4.60;3.05;;;;;;;;;;10251401;28;20046;-79
2023/02/20 07:48:19;;;;;;;2.95;1.27;;;;;;;;;;10276147;28;20082;-75
2023/02/20 07:53:20;;;;;;;4.10;1.60;;;;;;;;;;10276422;28;20035;-78
2023/02/20 07:58:20;;;;;;;12.02;1.73;;;;;;;;;;10255240;28;20042;-74
2023/02/20 08:03:21;;;;;;;13.23;1.73;;;;;;;;;;10242561;28;20072;-84
2023/02/20 08:08:23;;;;;;;2.22;0.85;;;;;;;;;;10235581;28;20275;-72
2023/02/20 08:13:23;;;;;;;1.70;0.98;;;;;;;;;;10238602;28;20064;-74
2023/02/20 08:18:24;;;;;;;3.28;0.98;;;;;;;;;;10218532;28;20454;-74
2023/02/20 08:23:28;;;;;;;5.50;1.15;;;;;;;;;;10235907;28;20125;-82
2023/02/20 08:28:29;;;;;;;2.85;1.10;;;;;;;;;;10223712;28;20081;-78
2023/02/20 08:33:29;;;;;;;3.30;0.83;;;;;;;;;;10235458;28;20041;-76
2023/02/20 08:38:34;;;;;;;6.73;1.50;;;;;;;;;;10235737;28;20291;-75
2023/02/20 08:43:35;;;;;;;4.43;0.70;;;;;;;;;;10217772;28;20611;-74
2023/02/20 08:48:36;;;;;;;7.53;0.90;;;;;;;;;;10234107;28;20031;-79
2023/02/20 08:53:37;;;;;;;1.80;0.90;;;;;;;;;;10241792;28;20043;-74
2023/02/20 08:58:39;;;;;;;1.38;0.65;;;;;;;;;;10225369;28;20110;-81
2023/02/20 09:03:40;;;;;;;1.10;0.60;;;;;;;;;;10239049;28;20493;-83
2023/02/20 09:08:41;;;;;;;1.38;0.77;;;;;;;;;;10234862;28;20114;-80
2023/02/20 09:13:42;;;;;;;6.47;1.10;;;;;;;;;;10225655;28;20494;-79
2023/02/20 09:18:43;;;;;;;3.17;0.52;;;;;;;;;;10215095;28;20081;-78
2023/02/20 09:23:43;;;;;;;3.47;1.17;;;;;;;;;;10218378;28;20027;-79
2023/02/20 09:28:43;;;;;;;10.02;0.80;;;;;;;;;;10245194;28;20356;-77
2023/02/20 09:33:45;;;;;;;2.53;0.70;;;;;;;;;;10225186;28;20031;-81
2023/02/20 09:38:45;;;;;;;14.40;1.33;;;;;;;;;;10231518;28;20031;-83
2023/02/20 09:43:51;;;;;;;4.10;1.02;;;;;;;;;;10255716;28;20031;-81
2023/02/20 09:49:01;;;;;;;4.88;0.90;;;;;;;;;;10259405;28;20568;-77
2023/02/20 09:54:07;;;;;;;1.45;0.65;;;;;;;;;;10231328;28;20027;-79
2023/02/20 09:59:25;;;;;;;3.80;1.00;;;;;;;;;;10251551;28;20035;-81
2023/02/20 10:04:39;;;;;;;6.07;0.90;;;;;;;;;;10283819;28;20053;-78
2023/02/20 10:09:39;;;;;;;4.00;0.90;;;;;;;;;;10283629;28;20030;-82
2023/02/20 10:14:47;;;;;;;2.60;0.70;;;;;;;;;;10298212;28;20026;-81
2023/02/20 10:19:47;;;;;;;;;;;;;;;;;;10287308;28;20019;-84
2023/02/20 10:24:54;;;;;;;7.70;0.80;;;;;;;;;;10282871;28;19906;-77
2023/02/20 10:29:55;;;;;;;2.10;0.65;;;;;;;;;;10286431;28;20037;-79
2023/02/20 10:34:55;;;;;;;2.13;0.38;;;;;;;;;;10285677;28;20515;-81
2023/02/20 10:40:10;;;;;;;4.72;0.60;;;;;;;;;;10282362;28;20126;-81
2023/02/20 10:45:10;;;;;;;3.00;0.70;;;;;;;;;;10241926;28;20113;-81
2023/02/20 10:50:16;;;;;;;5.53;0.60;;;;;;;;;;10273274;28;20030;-77
2023/02/20 10:55:39;;;;;;;0.70;0.47;;;;;;;;;;10275278;28;20117;-78
2023/02/20 11:00:42;;;;;;;4.88;0.65;;;;;;;;;;10289935;28;20084;-81
2023/02/20 11:05:45;;;;;;;1.17;0.60;;;;;;;;;;10316269;28;20046;-77
2023/02/20 11:10:52;;;;;;;2.33;0.40;;;;;;;;;;10310045;28;20101;-74
2023/02/20 11:15:55;;;;;;;1.33;0.40;;;;;;;;;;10307148;28;20037;-79
2023/02/20 11:20:56;;;;;;;3.08;0.70;;;;;;;;;;10281557;28;20425;-75
2023/02/20 11:26:11;;;;;;;1.90;0.68;;;;;;;;;;10267549;28;20029;-79
2023/02/20 11:31:12;;;;;;;1.20;0.50;;;;;;;;;;10245120;28;20038;-82
2023/02/20 11:36:22;;;;;;;0.80;0.50;;;;;;;;;;10277162;28;20105;-79
2023/02/20 11:41:25;;;;;;;3.85;0.50;;;;;;;;;;10265939;28;20014;-79
2023/02/20 11:46:26;;;;;;;0.75;0.40;;;;;;;;;;10284850;28;20102;-74
2023/02/20 11:51:40;;;;;;;1.98;0.55;;;;;;;;;;10305433;28;20512;-75
2023/02/20 11:57:09;;;;;;;2.28;0.60;;;;;;;;;;10281572;28;20023;-79
2023/02/20 12:02:11;;;;;;;0.70;0.47;;;;;;;;;;10302075;28;20081;-75
2023/02/20 12:07:25;;;;;;;1.73;0.68;;;;;;;;;;10302540;28;20034;-76
2023/02/20 12:12:27;;;;;;;1.45;0.30;;;;;;;;;;10293559;28;20475;-74
2023/02/20 12:17:42;;;;;;;1.98;0.70;;;;;;;;;;10292389;28;20089;-79
2023/02/20 12:22:44;;;;;;;3.88;0.90;;;;;;;;;;10315781;28;20034;-79
2023/02/20 12:28:03;;;;;;;1.38;0.75;;;;;;;;;;10307560;28;20062;-79
2023/02/20 12:33:17;;;;;;;2.55;0.30;;;;;;;;;;10304055;28;20030;-81
2023/02/20 12:38:24;;;;;;;3.63;0.60;;;;;;;;;;10301942;28;20069;-79
2023/02/20 12:43:35;;;;;;;1.90;0.93;;;;;;;;;;10290247;28;20035;-79
2023/02/20 12:48:41;;;;;;;1.77;0.60;;;;;;;;;;10290674;28;20269;-77
2023/02/20 12:53:47;;;;;;;3.50;0.40;;;;;;;;;;10279602;28;20030;-78
2023/02/20 12:59:00;;;;;;;1.45;0.57;;;;;;;;;;10270274;28;20073;-75
2023/02/20 13:04:22;;;;;;;5.35;0.82;;;;;;;;;;10268955;28;20081;-78
2023/02/20 13:09:34;;;;;;;1.92;0.82;;;;;;;;;;10258396;28;20046;-82
2023/02/20 13:14:41;;;;;;;4.40;0.82;;;;;;;;;;10262293;28;20038;-77
2023/02/20 13:19:48;;;;;;;1.35;0.55;;;;;;;;;;10265241;28;20038;-78
2023/02/20 13:24:50;;;;;;;7.47;0.50;;;;;;;;;;10280352;28;20023;-76
2023/02/20 13:30:19;;;;;;;3.50;0.88;;;;;;;;;;10279496;28;20031;-77
2023/02/20 13:35:32;;;;;;;0.73;0.50;;;;;;;;;;10258088;28;20038;-78
2023/02/20 13:40:37;;;;;;;1.80;0.68;;;;;;;;;;10282418;28;20030;-77
2023/02/20 13:45:41;;;;;;;0.22;0.22;;;;;;;;;;10257260;28;20027;-75
2023/02/20 13:50:42;;;;;;;0.95;0.45;;;;;;;;;;10293284;28;20545;-79
2023/02/20 13:55:42;;;;;;;2.20;0.50;;;;;;;;;;10282688;28;20027;-76
2023/02/20 14:00:51;;;;;;;3.20;0.68;;;;;;;;;;10294788;28;20050;-77
2023/02/20 14:06:04;;;;;;;3.50;0.90;;;;;;;;;;10295297;28;20029;-79
2023/02/20 14:11:22;;;;;;;6.97;4.30;;;;;;;;;;10323267;28;20843;-79
2023/02/20 14:16:22;;;;;;;;;;;;;;;;;;10306911;28;20101;-76
2023/02/20 14:21:23;;;;;;;403.67;121.85;;;;;;;;;;10314945;28;20001;-76
2023/02/20 14:26:25;;;;;;;19.43;5.43;;;;;;;;;;10316765;28;20469;-83
2023/02/20 14:31:25;;;;;;;215.32;59.15;;;;;;;;;;10303397;28;20033;-80
2023/02/20 14:36:41;;;;;;;637.85;188.15;;;;;;;;;;10294853;28;20479;-81
2023/02/20 14:41:52;;;;;;;99.72;23.15;;;;;;;;;;10310327;28;20035;-76
2023/02/20 14:46:54;;;;;;;6.53;2.47;;;;;;;;;;10284803;28;20088;-79
2023/02/20 14:52:10;;;;;;;3.85;0.77;;;;;;;;;;10293754;28;20026;-78
2023/02/20 14:57:12;;;;;;;1.70;0.98;;;;;;;;;;10304537;28;20592;-77
2023/02/20 15:02:21;;;;;;;4.20;1.30;;;;;;;;;;10310513;28;20700;-80
2023/02/20 15:07:23;;;;;;;2.05;0.98;;;;;;;;;;10259665;28;20105;-78
2023/02/20 15:12:38;;;;;;;4.13;1.95;;;;;;;;;;10266613;28;20030;-79
2023/02/20 15:17:39;;;;;;;1.65;1.35;;;;;;;;;;10285116;28;20037;-77
2023/02/20 15:22:41;;;;;;;3.35;0.85;;;;;;;;;;10265822;28;20029;-79
2023/02/20 15:28:01;;;;;;;1.80;1.00;;;;;;;;;;10274577;28;20541;-80
2023/02/20 15:33:02;;;;;;;2.17;1.10;;;;;;;;;;10264223;28;20038;-77
2023/02/20 15:38:06;;;;;;;2.17;0.90;;;;;;;;;;10280010;28;20026;-75
2023/02/20 15:43:13;;;;;;;1.63;0.90;;;;;;;;;;10258717;28;20452;-80
2023/02/20 15:48:14;;;;;;;3.38;1.08;;;;;;;;;;10275742;28;20073;-80
2023/02/20 15:53:18;;;;;;;3.38;1.30;;;;;;;;;;10263726;28;20085;-79
2023/02/20 15:58:20;;;;;;;6.32;1.45;;;;;;;;;;10260614;28;20039;-77
2023/02/20 16:03:21;;;;;;;3.60;1.17;;;;;;;;;;10298692;28;20107;-77
2023/02/20 16:08:22;;;;;;;4.18;1.30;;;;;;;;;;10281009;28;20086;-72
2023/02/20 16:13:32;;;;;;;3.20;1.15;;;;;;;;;;10289092;28;20035;-75
2023/02/20 16:18:32;;;;;;;3.78;1.40;;;;;;;;;;10289971;28;20034;-72
2023/02/20 16:23:32;;;;;;;3.45;1.65;;;;;;;;;;10298473;28;20018;-74
2023/02/20 16:28:33;;;;;;;3.95;1.80;;;;;;;;;;10284323;28;20031;-70
2023/02/20 16:33:33;;;;;;;3.47;1.77;;;;;;;;;;10273650;28;20034;-80
2023/02/20 16:38:33;;;;;;;3.35;1.50;;;;;;;;;;10278072;28;20266;-74
2023/02/20 16:43:34;;;;;;;4.90;2.20;;;;;;;;;;10271976;28;20034;-75
2023/02/20 16:48:35;;;;;;;2.95;1.83;;;;;;;;;;10291069;28;20030;-76
2023/02/20 16:53:37;;;;;;;8.13;2.38;;;;;;;;;;10274909;28;20031;-74
2023/02/20 16:58:37;;;;;;;3.13;1.73;;;;;;;;;;10265503;28;20174;-79
2023/02/20 17:03:39;;;;;;;3.70;1.70;;;;;;;;;;10251548;28;20055;-77
2023/02/20 17:08:39;;;;;;;3.90;1.88;;;;;;;;;;10243388;28;20031;-75
2023/02/20 17:13:39;;;;;;;3.97;1.83;;;;;;;;;;10244769;28;20023;-79
2023/02/20 17:18:40;;;;;;;4.90;2.75;;;;;;;;;;10246631;28;20146;-76
2023/02/20 17:23:42;;;;;;;3.20;1.73;;;;;;;;;;10249415;28;20081;-78
2023/02/20 17:28:46;;;;;;;4.75;2.10;;;;;;;;;;10229593;28;20097;-72
2023/02/20 17:33:46;;;;;;;5.28;1.75;;;;;;;;;;10244148;28;20027;-73
2023/02/20 17:38:49;;;;;;;3.50;2.67;;;;;;;;;;10227283;28;20023;-80
2023/02/20 17:43:49;;;;;;;4.28;2.60;;;;;;;;;;10208504;28;20061;-72
2023/02/20 17:48:49;;;;;;;7.15;2.25;;;;;;;;;;10220672;28;20039;-81
2023/02/20 17:53:50;;;;;;;3.53;2.08;;;;;;;;;;10240291;28;20097;-76
2023/02/20 17:58:50;;;;;;;4.20;2.00;;;;;;;;;;10240449;28;20122;-80
2023/02/20 18:03:51;;;;;;;4.38;1.52;;;;;;;;;;10239005;28;20050;-74
2023/02/20 18:08:51;;;;;;;4.35;1.83;;;;;;;;;;10224846;28;20026;-74
2023/02/20 18:13:52;;;;;;;2.38;1.75;;;;;;;;;;10235541;28;20170;-72
2023/02/20 18:18:52;;;;;;;3.10;1.80;;;;;;;;;;10236983;28;20046;-73
2023/02/20 18:23:53;;;;;;;5.63;2.20;;;;;;;;;;10218425;28;20158;-72
2023/02/20 18:28:53;;;;;;;2.65;1.83;;;;;;;;;;10248444;28;20027;-80
2023/02/20 18:33:54;;;;;;;2.60;1.43;;;;;;;;;;10221549;28;20031;-79
2023/02/20 18:38:55;;;;;;;4.30;2.10;;;;;;;;;;10207486;28;20019;-74
2023/02/20 18:43:57;;;;;;;3.70;2.10;;;;;;;;;;10220892;28;20019;-78
2023/02/20 18:48:58;;;;;;;3.92;2.78;;;;;;;;;;10237873;28;20364;-72
2023/02/20 18:53:58;;;;;;;2.42;1.50;;;;;;;;;;10224211;28;20409;-78
2023/02/20 18:59:02;;;;;;;3.60;1.83;;;;;;;;;;10227831;28;20030;-79
2023/02/20 19:04:02;;;;;;;15.98;3.05;;;;;;;;;;10234212;28;20054;-74
2023/02/20 19:09:05;;;;;;;7.37;2.37;;;;;;;;;;10245692;28;20418;-72
2023/02/20 19:14:06;;;;;;;3.53;2.38;;;;;;;;;;10220532;28;20875;-79
2023/02/20 19:19:12;;;;;;;3.30;2.43;;;;;;;;;;10230979;28;20014;-78
2023/02/20 19:24:21;;;;;;;10.43;3.42;;;;;;;;;;10238660;28;20108;-78
2023/02/20 19:29:26;;;;;;;5.10;2.40;;;;;;;;;;10244004;28;20027;-77
2023/02/20 19:34:26;;;;;;;4.28;2.30;;;;;;;;;;10232065;28;20074;-72
2023/02/20 19:39:27;;;;;;;6.13;2.17;;;;;;;;;;10250520;28;20050;-78
2023/02/20 19:44:27;;;;;;;5.32;2.33;;;;;;;;;;10244859;28;20019;-80
2023/02/20 19:49:28;;;;;;;2.25;1.58;;;;;;;;;;10239670;28;20035;-72
2023/02/20 19:54:31;;;;;;;4.28;1.70;;;;;;;;;;10228940;28;20030;-75
2023/02/20 19:59:32;;;;;;;5.15;1.92;;;;;;;;;;10221365;28;20043;-74
2023/02/20 20:04:32;;;;;;;4.07;1.85;;;;;;;;;;10300180;28;20062;-76
2023/02/20 20:09:33;;;;;;;2.13;1.55;;;;;;;;;;10290190;28;20571;-80
2023/02/20 20:14:33;;;;;;;7.20;2.03;;;;;;;;;;10260348;28;20090;-74
2023/02/20 20:19:33;;;;;;;7.70;3.83;;;;;;;;;;10261612;28;20089;-74
2023/02/20 20:24:34;;;;;;;13.77;3.70;;;;;;;;;;10267898;28;20053;-82
2023/02/20 20:29:34;;;;;;;6.22;3.58;;;;;;;;;;10276544;28;20031;-74
2023/02/20 20:34:47;;;;;;;7.40;3.40;;;;;;;;;;10267552;28;20027;-80
2023/02/20 20:39:52;;;;;;;7.43;3.92;;;;;;;;;;10283269;28;20026;-74
2023/02/20 20:44:56;;;;;;;10.00;4.05;;;;;;;;;;10266749;28;20412;-76
2023/02/20 20:49:57;;;;;;;8.93;4.32;;;;;;;;;;10291160;28;20468;-76
2023/02/20 20:54:59;;;;;;;10.25;5.22;;;;;;;;;;10258366;28;20046;-75
2023/02/20 21:00:01;;;;;;;22.15;10.15;;;;;;;;;;10261441;28;20096;-76
2023/02/20 21:05:01;;;;;;;25.85;12.00;;;;;;;;;;10259575;28;20038;-78
2023/02/20 21:10:01;;;;;;;20.30;11.23;;;;;;;;;;10266133;28;20031;-76
2023/02/20 21:15:03;;;;;;;26.90;11.77;;;;;;;;;;10279901;28;20041;-79
2023/02/20 21:20:06;;;;;;;24.05;12.80;;;;;;;;;;10229851;28;20027;-80
2023/02/20 21:25:07;;;;;;;26.90;12.02;;;;;;;;;;10275200;28;20042;-76
2023/02/20 21:30:08;;;;;;;20.90;11.68;;;;;;;;;;10274462;28;20026;-77
2023/02/20 21:35:08;;;;;;;32.30;12.30;;;;;;;;;;10255828;28;20306;-78
2023/02/20 21:40:08;;;;;;;26.83;14.30;;;;;;;;;;10258682;28;20019;-73
2023/02/20 21:45:09;;;;;;;27.90;12.35;;;;;;;;;;10274892;28;20030;-75
2023/02/20 21:50:09;;;;;;;23.93;12.57;;;;;;;;;;10293076;28;20042;-78
2023/02/20 21:55:13;;;;;;;26.80;12.60;;;;;;;;;;10284026;28;20431;-77
